Terminal Aerodrome Forecast
Issued by NWS

Home | Current Version | Previous Version | Text Only | Print | Product List | Glossary On
Versions: 1 2 3 4 5 6 7 8 9 10 11 12 13 14 15 16 17 18 19 20 21 22 23 24 25 26 27 28 29 30 31 32 33 34 35 36
000
FTUS42 KCAE 270500
TAFCUB
TAF
KCUB 270539Z 2706/2806 24004KT P6SM SCT070
     FM271100 26010KT P6SM SKC
     FM271500 29014G22KT P6SM SCT050
     FM272300 32004KT P6SM SKC=

USA.gov is the U.S. government's official web portal to all federal, state and local government web resources and services.